createdAt,value
2018-08-13T00:00:02.107Z,77.09
2018-08-13T00:02:34.115Z,77.54
2018-08-13T00:05:06.135Z,78.45
2018-08-13T00:07:38.151Z,79.16
2018-08-13T00:10:10.138Z,78.70
2018-08-13T00:12:42.159Z,78.39
2018-08-13T00:15:14.172Z,78.86
2018-08-13T00:17:46.499Z,79.52
2018-08-13T00:20:18.542Z,79.20
2018-08-13T00:22:50.538Z,78.60
2018-08-13T00:25:22.514Z,78.45
2018-08-13T00:27:54.497Z,77.30
2018-08-13T00:30:26.475Z,77.84
2018-08-13T00:32:58.498Z,78.25
2018-08-13T00:35:30.486Z,79.58
2018-08-13T00:38:02.511Z,81.51
2018-08-13T00:40:34.484Z,81.07
2018-08-13T00:43:06.721Z,80.16
2018-08-13T00:45:38.739Z,79.75
2018-08-13T00:48:10.774Z,80.26
2018-08-13T00:50:42.778Z,80.65
2018-08-13T00:53:14.802Z,81.24
2018-08-13T00:55:46.827Z,81.61
2018-08-13T00:58:18.834Z,82.15
2018-08-13T01:00:50.802Z,83.18
2018-08-13T01:03:22.790Z,82.58
2018-08-13T01:05:54.815Z,82.87
2018-08-13T01:08:26.799Z,83.49
2018-08-13T01:10:58.831Z,83.11
2018-08-13T01:13:30.856Z,84.61
2018-08-13T01:16:02.851Z,83.96
2018-08-13T01:18:34.862Z,83.73
2018-08-13T01:21:06.871Z,82.67
2018-08-13T01:23:38.878Z,82.73
2018-08-13T01:26:10.931Z,82.54
2018-08-13T01:28:42.966Z,83.94
2018-08-13T01:31:14.988Z,82.76
2018-08-13T01:33:46.998Z,82.54
2018-08-13T01:36:19.018Z,82.30
2018-08-13T01:38:51.028Z,83.02
2018-08-13T01:41:23.053Z,82.49
2018-08-13T01:43:55.058Z,82.53
2018-08-13T01:46:27.049Z,81.30
2018-08-13T01:48:59.134Z,81.30
2018-08-13T01:51:31.132Z,80.75
2018-08-13T01:54:03.134Z,81.58
2018-08-13T01:56:35.131Z,80.08
2018-08-13T01:59:07.175Z,79.12
2018-08-13T02:01:39.179Z,79.22
2018-08-13T02:04:11.255Z,79.00
2018-08-13T02:06:43.271Z,78.55
2018-08-13T02:09:15.313Z,78.45
2018-08-13T02:11:47.374Z,77.91
2018-08-13T02:14:19.403Z,77.96
2018-08-13T02:16:51.419Z,77.95
2018-08-13T02:19:23.442Z,77.71
2018-08-13T02:21:55.787Z,77.67
2018-08-13T02:24:28.187Z,77.13
2018-08-13T02:27:00.202Z,76.98
2018-08-13T02:29:32.263Z,78.06
2018-08-13T02:32:04.274Z,77.31
2018-08-13T02:34:36.287Z,76.88
2018-08-13T02:37:08.286Z,78.10
2018-08-13T02:39:40.332Z,77.61
2018-08-13T02:42:12.334Z,78.11
2018-08-13T02:44:44.348Z,78.65
2018-08-13T02:47:16.343Z,79.15
2018-08-13T02:49:48.378Z,79.89
2018-08-13T02:52:20.439Z,80.56
2018-08-13T02:54:52.468Z,79.97
2018-08-13T02:57:24.478Z,80.89
2018-08-13T02:59:56.523Z,81.34
2018-08-13T03:02:28.525Z,80.73
2018-08-13T03:05:00.581Z,81.07
2018-08-13T03:07:32.604Z,81.54
2018-08-13T03:10:06.667Z,81.18
2018-08-13T03:12:38.689Z,81.75
2018-08-13T03:15:13.269Z,82.03
2018-08-13T03:17:45.256Z,81.86
2018-08-13T03:20:17.284Z,82.42
2018-08-13T03:22:49.262Z,82.43
2018-08-13T03:25:21.954Z,82.78
2018-08-13T03:27:53.960Z,82.63
2018-08-13T03:30:25.972Z,83.39
2018-08-13T03:32:57.988Z,83.46
2018-08-13T03:35:30.044Z,82.76
2018-08-13T03:38:02.094Z,83.75
2018-08-13T03:40:34.147Z,83.30
2018-08-13T03:43:06.171Z,83.21
2018-08-13T03:45:38.172Z,83.64
2018-08-13T03:48:10.200Z,84.82
2018-08-13T03:50:42.249Z,83.57
2018-08-13T03:53:14.242Z,84.39
2018-08-13T03:55:46.346Z,85.83
2018-08-13T03:58:18.338Z,85.93
2018-08-13T04:00:50.379Z,85.80
2018-08-13T04:03:22.375Z,86.11
2018-08-13T04:05:54.426Z,85.56
2018-08-13T04:08:26.440Z,86.40
2018-08-13T04:10:58.446Z,86.28
2018-08-13T04:13:30.467Z,85.61
2018-08-13T04:16:02.507Z,86.50
2018-08-13T04:18:34.575Z,86.13
2018-08-13T04:21:06.616Z,86.51
2018-08-13T04:23:38.630Z,85.88
2018-08-13T04:26:10.655Z,86.33
2018-08-13T04:28:42.726Z,85.26
2018-08-13T04:31:14.782Z,85.52
2018-08-13T04:33:46.782Z,85.38
2018-08-13T04:36:18.822Z,85.23
2018-08-13T04:38:50.896Z,85.02
2018-08-13T04:41:22.958Z,84.45
2018-08-13T04:43:54.950Z,84.98
2018-08-13T04:46:26.992Z,85.09
2018-08-13T04:48:58.986Z,84.31
2018-08-13T04:51:31.030Z,84.54
2018-08-13T04:54:03.200Z,83.75
2018-08-13T04:56:35.266Z,83.74
2018-08-13T04:59:07.234Z,84.19
2018-08-13T05:01:39.271Z,83.93
2018-08-13T05:04:11.270Z,84.06
2018-08-13T05:06:43.292Z,83.78
2018-08-13T05:09:15.295Z,83.67
2018-08-13T05:11:47.335Z,82.99
2018-08-13T05:14:19.367Z,83.43
2018-08-13T05:16:51.400Z,81.72
2018-08-13T05:19:23.423Z,80.41
2018-08-13T05:21:55.502Z,80.23
2018-08-13T05:24:27.534Z,79.58
2018-08-13T05:26:59.567Z,79.06
2018-08-13T05:29:31.563Z,77.46
2018-08-13T05:32:03.660Z,73.88
2018-08-13T05:34:35.654Z,67.95
2018-08-13T05:37:07.672Z,63.59
2018-08-13T05:39:39.707Z,59.61
2018-08-13T05:42:11.775Z,56.68
2018-08-13T05:44:43.780Z,52.22
2018-08-13T05:47:15.799Z,49.42
2018-08-13T05:49:47.887Z,48.29
2018-08-13T05:52:19.866Z,50.17
2018-08-13T05:54:51.901Z,49.72
2018-08-13T05:57:23.907Z,47.93
2018-08-13T05:59:55.904Z,45.27
2018-08-13T06:02:27.931Z,43.97
2018-08-13T06:04:59.981Z,45.17
2018-08-13T06:07:32.023Z,42.88
2018-08-13T06:10:05.447Z,41.15
2018-08-13T06:12:37.626Z,41.58
2018-08-13T06:15:11.421Z,40.37
2018-08-13T06:17:43.421Z,40.11
2018-08-13T06:20:15.469Z,39.49
2018-08-13T06:22:47.482Z,41.11
2018-08-13T06:25:19.515Z,38.97
2018-08-13T06:27:51.560Z,39.37
2018-08-13T06:30:23.584Z,41.41
2018-08-13T06:32:55.598Z,38.81
2018-08-13T06:35:27.695Z,40.45
2018-08-13T06:37:59.695Z,37.43
2018-08-13T06:40:31.784Z,38.41
2018-08-13T06:43:03.862Z,37.63
2018-08-13T06:45:35.932Z,36.71
2018-08-13T06:48:07.954Z,37.08
2018-08-13T06:50:39.941Z,34.97
2018-08-13T06:53:18.749Z,33.50
2018-08-13T06:55:50.747Z,36.13
2018-08-13T06:58:22.747Z,37.22
2018-08-13T07:00:54.827Z,37.37
2018-08-13T07:03:26.762Z,35.66
2018-08-13T07:05:58.808Z,38.59
2018-08-13T07:08:30.784Z,35.64
2018-08-13T07:11:02.795Z,36.90
2018-08-13T07:13:34.846Z,37.79
2018-08-13T07:16:06.848Z,35.09
2018-08-13T07:18:38.986Z,35.43
2018-08-13T07:21:10.979Z,36.48
2018-08-13T07:23:44.345Z,36.70
2018-08-13T07:26:16.387Z,35.34
2018-08-13T07:28:48.579Z,36.83
2018-08-13T07:31:20.563Z,35.62
2018-08-13T07:33:52.603Z,34.18
2018-08-13T07:36:24.590Z,34.24
2018-08-13T07:38:56.676Z,35.40
2018-08-13T07:41:28.631Z,37.63
2018-08-13T07:44:00.619Z,38.78
2018-08-13T07:46:32.611Z,38.24
2018-08-13T07:49:04.666Z,37.98
2018-08-13T07:51:36.672Z,38.06
2018-08-13T07:54:08.727Z,37.15
2018-08-13T07:56:40.766Z,35.55
2018-08-13T07:59:12.763Z,34.91
2018-08-13T08:01:44.763Z,33.13
2018-08-13T08:04:16.795Z,35.55
2018-08-13T08:06:48.806Z,36.73
2018-08-13T08:09:20.799Z,36.92
2018-08-13T08:11:52.870Z,36.86
2018-08-13T08:14:24.939Z,36.88
2018-08-13T08:16:56.991Z,35.88
2018-08-13T08:19:29.007Z,36.52
2018-08-13T08:22:01.132Z,36.76
2018-08-13T08:24:33.194Z,36.02
2018-08-13T08:27:05.593Z,36.22
2018-08-13T08:29:37.640Z,36.95
2018-08-13T08:32:09.660Z,34.26
2018-08-13T08:34:41.738Z,35.54
2018-08-13T08:37:13.794Z,34.55
2018-08-13T08:39:45.831Z,32.94
2018-08-13T08:42:17.879Z,32.56
2018-08-13T08:44:49.866Z,34.57
2018-08-13T08:47:21.867Z,33.14
2018-08-13T08:49:53.902Z,31.40
2018-08-13T08:52:25.935Z,31.43
2018-08-13T08:54:57.991Z,32.29
2018-08-13T08:57:30.024Z,33.14
2018-08-13T09:00:02.086Z,31.81
2018-08-13T09:02:34.085Z,30.98
2018-08-13T09:05:07.048Z,32.37
2018-08-13T09:07:39.832Z,30.95
2018-08-13T09:10:11.965Z,32.18
2018-08-13T09:12:44.039Z,31.19
2018-08-13T09:15:17.395Z,31.76
2018-08-13T09:18:01.105Z,31.35
2018-08-13T09:20:44.630Z,31.03
2018-08-13T09:23:27.978Z,31.15
2018-08-13T09:26:11.448Z,30.79
2018-08-13T09:28:54.845Z,29.42
2018-08-13T09:31:38.488Z,29.29
2018-08-13T09:34:20.906Z,29.85
2018-08-13T09:36:52.951Z,30.12
2018-08-13T09:39:24.966Z,29.59
2018-08-13T09:41:57.030Z,28.98
2018-08-13T09:44:29.063Z,29.22
2018-08-13T09:47:01.619Z,29.53
2018-08-13T09:49:33.686Z,30.53
2018-08-13T09:52:06.052Z,28.87
2018-08-13T09:54:38.074Z,28.00
2018-08-13T09:57:10.085Z,27.38
2018-08-13T09:59:42.175Z,27.48
2018-08-13T10:02:14.230Z,27.84
2018-08-13T10:04:46.474Z,26.84
2018-08-13T10:07:18.478Z,27.19
2018-08-13T10:09:50.495Z,26.09
2018-08-13T10:12:22.504Z,28.43
2018-08-13T10:14:54.532Z,26.53
2018-08-13T10:17:26.595Z,26.89
2018-08-13T10:19:58.608Z,28.30
2018-08-13T10:22:30.633Z,29.18
2018-08-13T10:25:03.200Z,28.53
2018-08-13T10:27:35.232Z,25.36
2018-08-13T10:30:08.560Z,25.17
2018-08-13T10:32:40.795Z,24.11
2018-08-13T10:35:12.846Z,23.20
2018-08-13T10:37:44.874Z,23.74
2018-08-13T10:40:18.034Z,23.28
2018-08-13T10:42:50.069Z,25.06
2018-08-13T10:45:22.101Z,24.85
2018-08-13T10:47:54.124Z,25.20
2018-08-13T10:50:26.221Z,26.26
2018-08-13T10:52:58.253Z,25.88
2018-08-13T10:55:30.316Z,24.73
2018-08-13T10:58:02.380Z,26.07
2018-08-13T11:00:34.395Z,26.04
2018-08-13T11:03:06.437Z,25.26
2018-08-13T11:05:38.455Z,23.95
2018-08-13T11:08:10.487Z,24.28
2018-08-13T11:10:42.540Z,22.86
2018-08-13T11:13:14.641Z,24.01
2018-08-13T11:15:46.630Z,24.30
2018-08-13T11:18:18.688Z,24.62
2018-08-13T11:20:50.735Z,24.99
2018-08-13T11:23:22.791Z,26.39
2018-08-13T11:25:54.811Z,26.92
2018-08-13T11:28:26.869Z,26.69
2018-08-13T11:30:58.914Z,25.85
2018-08-13T11:33:30.948Z,24.98
2018-08-13T11:36:03.003Z,25.48
2018-08-13T11:38:35.045Z,25.42
2018-08-13T11:41:07.066Z,24.80
2018-08-13T11:43:39.151Z,24.77
2018-08-13T11:46:11.235Z,23.82
2018-08-13T11:48:43.289Z,23.70
2018-08-13T11:51:15.322Z,22.55
2018-08-13T11:53:48.196Z,22.34
2018-08-13T11:56:20.259Z,23.26
2018-08-13T11:58:52.262Z,22.20
2018-08-13T12:01:24.284Z,22.46
2018-08-13T12:03:56.298Z,22.31
2018-08-13T12:06:28.299Z,22.75
2018-08-13T12:09:00.340Z,21.74
2018-08-13T12:11:32.358Z,22.15
2018-08-13T12:14:04.551Z,23.38
2018-08-13T12:16:36.833Z,23.69
2018-08-13T12:19:08.886Z,23.23
2018-08-13T12:21:40.908Z,23.77
2018-08-13T12:24:12.882Z,24.18
2018-08-13T12:26:44.976Z,24.62
2018-08-13T12:29:16.971Z,23.05
2018-08-13T12:31:48.999Z,22.82
2018-08-13T12:34:21.026Z,23.29
2018-08-13T12:36:57.639Z,25.19
2018-08-13T12:39:29.633Z,25.03
2018-08-13T12:42:01.679Z,25.33
2018-08-13T12:44:40.590Z,24.95
2018-08-13T12:47:12.582Z,23.79
2018-08-13T12:49:44.622Z,25.33
2018-08-13T12:52:16.615Z,24.82
2018-08-13T12:54:48.671Z,25.02
2018-08-13T12:57:20.707Z,27.67
2018-08-13T12:59:52.751Z,28.28
2018-08-13T13:02:24.751Z,25.42
2018-08-13T13:04:56.814Z,24.06
2018-08-13T13:07:28.905Z,24.04
2018-08-13T13:10:00.924Z,23.04
2018-08-13T13:12:32.911Z,23.64
2018-08-13T13:15:06.784Z,23.28
2018-08-13T13:17:39.199Z,23.95
2018-08-13T13:20:14.126Z,27.20
2018-08-13T13:22:46.599Z,25.09
2018-08-13T13:25:19.087Z,24.32
2018-08-13T13:27:51.131Z,24.91
2018-08-13T13:30:23.176Z,24.85
2018-08-13T13:32:55.267Z,25.65
2018-08-13T13:35:27.342Z,28.62
2018-08-13T13:37:59.378Z,29.59
2018-08-13T13:40:31.632Z,30.30
2018-08-13T13:43:03.543Z,29.25
2018-08-13T13:45:35.614Z,29.20
2018-08-13T13:48:07.634Z,29.55
2018-08-13T13:50:39.729Z,27.73
2018-08-13T13:53:11.768Z,27.43
2018-08-13T13:55:43.810Z,28.00
2018-08-13T13:58:15.810Z,30.71
2018-08-13T14:00:47.883Z,29.82
2018-08-13T14:03:19.937Z,29.58
2018-08-13T14:05:52.050Z,31.25
2018-08-13T14:08:24.220Z,33.65
2018-08-13T14:10:56.307Z,34.18
2018-08-13T14:13:28.331Z,34.68
2018-08-13T14:16:00.354Z,33.87
2018-08-13T14:18:32.409Z,33.80
2018-08-13T14:21:04.542Z,34.54
2018-08-13T14:23:36.555Z,34.66
2018-08-13T14:26:08.682Z,34.74
2018-08-13T14:28:40.767Z,35.25
2018-08-13T14:31:12.802Z,34.59
2018-08-13T14:33:44.802Z,35.38
2018-08-13T14:36:16.861Z,36.27
2018-08-13T14:38:48.875Z,35.97
2018-08-13T14:41:20.918Z,34.64
2018-08-13T14:43:52.930Z,35.79
2018-08-13T14:46:24.904Z,36.91
2018-08-13T14:48:56.882Z,37.29
2018-08-13T14:51:28.907Z,36.24
2018-08-13T14:54:02.192Z,37.07
2018-08-13T14:56:34.229Z,36.57
2018-08-13T14:59:06.527Z,36.78
2018-08-13T15:01:38.685Z,36.17
2018-08-13T15:04:10.718Z,35.48
2018-08-13T15:06:42.764Z,36.16
2018-08-13T15:09:14.753Z,36.71
2018-08-13T15:11:46.806Z,37.72
2018-08-13T15:14:18.814Z,38.42
2018-08-13T15:16:50.859Z,39.07
2018-08-13T15:19:22.949Z,38.17
2018-08-13T15:21:54.992Z,38.79
2018-08-13T15:24:27.016Z,40.07
2018-08-13T15:26:59.071Z,39.20
2018-08-13T15:29:31.316Z,39.13
2018-08-13T15:32:03.371Z,38.63
2018-08-13T15:34:35.386Z,38.06
2018-08-13T15:37:07.482Z,38.00
2018-08-13T15:39:39.520Z,39.24
2018-08-13T15:42:11.560Z,39.43
2018-08-13T15:44:43.626Z,39.18
2018-08-13T15:47:15.672Z,38.51
2018-08-13T15:49:47.757Z,39.15
2018-08-13T15:52:19.866Z,40.09
2018-08-13T15:54:52.296Z,41.18
2018-08-13T15:57:24.382Z,41.33
2018-08-13T15:59:56.411Z,41.72
2018-08-13T16:02:32.946Z,42.45
2018-08-13T16:05:07.372Z,43.63
2018-08-13T16:07:39.479Z,45.93
2018-08-13T16:10:12.992Z,50.55
2018-08-13T16:12:45.388Z,55.76
2018-08-13T16:15:17.383Z,62.03
2018-08-13T16:17:49.432Z,69.35
2018-08-13T16:20:21.730Z,70.41
2018-08-13T16:22:53.775Z,75.42
2018-08-13T16:25:25.888Z,78.31
2018-08-13T16:27:58.060Z,77.57
2018-08-13T16:30:30.987Z,79.59
2018-08-13T16:33:03.347Z,80.56
2018-08-13T16:35:35.455Z,83.27
2018-08-13T16:38:07.606Z,85.83
2018-08-13T16:40:39.776Z,90.71
2018-08-13T16:43:13.922Z,90.19
2018-08-13T16:45:46.027Z,91.13
2018-08-13T16:48:18.149Z,93.83
2018-08-13T16:50:50.225Z,94.14
2018-08-13T16:53:22.285Z,96.87
2018-08-13T16:55:54.342Z,96.78
2018-08-13T16:58:26.399Z,98.61
2018-08-13T17:00:58.450Z,99.07
2018-08-13T17:03:30.535Z,100.00
2018-08-13T17:06:02.607Z,99.27
2018-08-13T17:08:34.761Z,100.00
2018-08-13T17:11:06.955Z,100.00
2018-08-13T17:13:39.144Z,100.00
2018-08-13T17:16:11.304Z,100.00
2018-08-13T17:18:43.320Z,100.00
2018-08-13T17:21:15.447Z,100.00
2018-08-13T17:23:47.429Z,100.00
2018-08-13T17:26:19.535Z,100.00
2018-08-13T17:28:51.712Z,100.00
2018-08-13T17:31:23.735Z,100.00
2018-08-13T17:33:55.895Z,100.00
2018-08-13T17:36:27.910Z,100.00
2018-08-13T17:38:59.952Z,100.00
2018-08-13T17:41:32.254Z,100.00
2018-08-13T17:44:04.690Z,100.00
2018-08-13T17:46:36.859Z,100.00
2018-08-13T17:49:09.059Z,100.00
2018-08-13T17:51:41.195Z,100.00
2018-08-13T17:54:13.302Z,100.00
2018-08-13T17:56:45.434Z,100.00
2018-08-13T17:59:17.424Z,100.00
2018-08-13T18:01:49.432Z,100.00
2018-08-13T18:04:21.431Z,100.00
2018-08-13T18:06:53.557Z,100.00
2018-08-13T18:09:26.723Z,100.00
2018-08-13T18:11:58.874Z,100.00
2018-08-13T18:14:30.927Z,100.00
2018-08-13T18:17:03.047Z,100.00
2018-08-13T18:19:35.066Z,100.00
2018-08-13T18:22:07.089Z,100.00
2018-08-13T18:24:39.110Z,100.00
2018-08-13T18:27:11.088Z,100.00
2018-08-13T18:32:21.956Z,100.00
2018-08-13T18:34:54.071Z,100.00
2018-08-13T18:37:26.111Z,100.00
2018-08-13T18:39:58.198Z,100.00
2018-08-13T18:42:30.202Z,100.00
2018-08-13T18:45:02.351Z,100.00
2018-08-13T18:47:34.441Z,100.00
2018-08-13T18:50:10.323Z,100.00
2018-08-13T18:52:42.952Z,100.00
2018-08-13T18:55:16.348Z,100.00
2018-08-13T18:57:48.708Z,100.00
2018-08-13T19:00:29.460Z,100.00
2018-08-13T19:03:01.695Z,100.00
2018-08-13T19:05:34.195Z,100.00
2018-08-13T19:08:06.244Z,100.00
2018-08-13T19:10:38.285Z,100.00
2018-08-13T19:13:10.286Z,100.00
2018-08-13T19:15:42.295Z,100.00
2018-08-13T19:18:14.345Z,100.00
2018-08-13T19:20:46.379Z,100.00
2018-08-13T19:23:18.458Z,100.00
2018-08-13T19:25:51.542Z,100.00
2018-08-13T19:28:23.611Z,100.00
2018-08-13T19:30:55.608Z,100.00
2018-08-13T19:33:27.687Z,100.00
2018-08-13T19:35:59.601Z,100.00
2018-08-13T19:38:31.629Z,100.00
2018-08-13T19:41:03.649Z,100.00
2018-08-13T19:43:35.674Z,100.00
2018-08-13T19:46:07.740Z,100.00
2018-08-13T19:48:39.711Z,100.00
2018-08-13T19:51:11.734Z,100.00
2018-08-13T19:53:43.737Z,100.00
2018-08-13T19:56:15.720Z,100.00
2018-08-13T19:58:47.751Z,100.00
2018-08-13T20:01:19.751Z,100.00
2018-08-13T20:03:51.767Z,100.00
2018-08-13T20:06:23.792Z,100.00
2018-08-13T20:08:55.833Z,100.00
2018-08-13T20:11:27.822Z,100.00
2018-08-13T20:13:59.807Z,100.00
2018-08-13T20:16:31.881Z,100.00
2018-08-13T20:19:03.895Z,100.00
2018-08-13T20:21:35.897Z,100.00
2018-08-13T20:24:07.886Z,100.00
2018-08-13T20:26:39.944Z,100.00
2018-08-13T20:29:12.259Z,100.00
2018-08-13T20:31:44.294Z,100.00
2018-08-13T20:34:16.379Z,100.00
2018-08-13T20:36:48.482Z,100.00
2018-08-13T20:39:20.491Z,100.00
2018-08-13T20:41:52.486Z,100.00
2018-08-13T20:44:24.572Z,100.00
2018-08-13T20:46:56.599Z,100.00
2018-08-13T20:49:28.638Z,100.00
2018-08-13T20:52:00.639Z,100.00
2018-08-13T20:54:33.187Z,100.00
2018-08-13T20:57:05.231Z,100.00
2018-08-13T20:59:37.249Z,100.00
2018-08-13T21:02:09.248Z,100.00
2018-08-13T21:04:41.253Z,100.00
2018-08-13T21:07:15.347Z,100.00
2018-08-13T21:09:47.323Z,100.00
2018-08-13T21:12:19.321Z,100.00
2018-08-13T21:14:51.344Z,100.00
2018-08-13T21:17:23.387Z,100.00
2018-08-13T21:19:55.422Z,100.00
2018-08-13T21:22:27.460Z,100.00
2018-08-13T21:27:57.776Z,100.00
2018-08-13T21:30:29.768Z,100.00
2018-08-13T21:33:01.802Z,100.00
2018-08-13T21:35:33.770Z,100.00
2018-08-13T21:38:05.788Z,100.00
2018-08-13T21:40:37.772Z,100.00
2018-08-13T21:43:09.815Z,100.00
2018-08-13T21:45:41.823Z,100.00
2018-08-13T21:48:13.851Z,100.00
2018-08-13T21:50:45.851Z,100.00
2018-08-13T21:53:17.864Z,100.00
2018-08-13T21:55:49.852Z,100.00
2018-08-13T21:58:21.875Z,100.00
2018-08-13T22:00:59.629Z,100.00
2018-08-13T22:03:31.689Z,100.00
2018-08-13T22:06:03.710Z,100.00
2018-08-13T22:08:35.719Z,100.00
2018-08-13T22:11:08.543Z,100.00
2018-08-13T22:13:40.542Z,100.00
2018-08-13T22:16:12.499Z,100.00
2018-08-13T22:18:44.491Z,100.00
2018-08-13T22:21:16.511Z,100.00
2018-08-13T22:24:00.244Z,100.00
2018-08-13T22:26:32.303Z,100.00
2018-08-13T22:29:04.332Z,100.00
2018-08-13T22:31:36.481Z,100.00
2018-08-13T22:34:08.898Z,100.00
2018-08-13T22:36:40.931Z,100.00
2018-08-13T22:39:12.966Z,100.00
2018-08-13T22:41:45.018Z,100.00
2018-08-13T22:44:17.043Z,100.00
2018-08-13T22:46:49.099Z,100.00
2018-08-13T22:49:21.306Z,100.00
2018-08-13T22:51:53.355Z,100.00
2018-08-13T22:54:25.438Z,100.00
2018-08-13T22:56:57.454Z,100.00
2018-08-13T22:59:29.505Z,100.00
2018-08-13T23:02:01.583Z,100.00
2018-08-13T23:04:33.606Z,100.00
2018-08-13T23:07:05.914Z,100.00
2018-08-13T23:09:37.944Z,100.00
2018-08-13T23:12:10.307Z,100.00
2018-08-13T23:14:42.433Z,100.00
2018-08-13T23:17:14.468Z,100.00
2018-08-13T23:19:46.511Z,100.00
2018-08-13T23:23:02.508Z,100.00
2018-08-13T23:25:35.586Z,100.00
2018-08-13T23:28:09.575Z,100.00
2018-08-13T23:30:41.582Z,100.00
2018-08-13T23:33:13.603Z,100.00
2018-08-13T23:35:45.623Z,100.00
2018-08-13T23:38:17.644Z,100.00
2018-08-13T23:40:49.648Z,100.00
2018-08-13T23:43:21.660Z,100.00
2018-08-13T23:45:53.664Z,100.00
2018-08-13T23:48:25.688Z,100.00
2018-08-13T23:50:57.698Z,100.00
2018-08-13T23:53:29.706Z,100.00
2018-08-13T23:56:01.745Z,100.00
2018-08-13T23:58:33.781Z,100.00
